createdAt,value
2018-11-26T00:01:55.297Z,97169.48
2018-11-26T00:04:30.448Z,97171.63
2018-11-26T00:07:05.373Z,97158.36
2018-11-26T00:09:40.285Z,97164.30
2018-11-26T00:12:13.287Z,97164.30
2018-11-26T00:14:51.288Z,97168.14
2018-11-26T00:17:24.260Z,97164.63
2018-11-26T00:19:59.313Z,97151.33
2018-11-26T00:22:32.287Z,97151.33
2018-11-26T00:27:46.800Z,97149.66
2018-11-26T00:30:22.291Z,97156.21
2018-11-26T00:32:57.134Z,97153.64
2018-11-26T00:35:32.353Z,97152.72
2018-11-26T00:38:08.292Z,97154.86
2018-11-26T00:40:43.333Z,97147.69
2018-11-26T00:43:18.685Z,97141.70
2018-11-26T00:45:53.755Z,97141.56
2018-11-26T00:48:29.499Z,97141.88
2018-11-26T00:51:04.428Z,97140.51
2018-11-26T00:53:39.847Z,97135.74
2018-11-26T00:56:15.105Z,97140.03
2018-11-26T00:58:50.545Z,97138.66
2018-11-26T01:01:25.288Z,97137.14
2018-11-26T01:04:00.414Z,97138.81
2018-11-26T01:06:35.295Z,97138.19
2018-11-26T01:09:13.302Z,97138.03
2018-11-26T01:11:48.362Z,97137.75
2018-11-26T01:14:23.788Z,97136.66
2018-11-26T01:16:58.953Z,97133.91
2018-11-26T01:19:32.276Z,97139.88
2018-11-26T01:22:05.299Z,97135.59
2018-11-26T01:24:40.288Z,97132.83
2018-11-26T01:27:13.275Z,97136.53
2018-11-26T01:29:51.507Z,97134.85
2018-11-26T01:35:09.661Z,97126.28
2018-11-26T01:37:44.545Z,97123.23
2018-11-26T01:40:44.488Z,97125.38
2018-11-26T01:43:19.923Z,97121.84
2018-11-26T01:45:55.280Z,97122.92
2018-11-26T01:48:29.360Z,97124.00
2018-11-26T01:51:04.283Z,97110.86
2018-11-26T01:53:39.352Z,97110.86
2018-11-26T01:56:14.293Z,97110.39
2018-11-26T01:58:48.300Z,97106.28
2018-11-26T02:01:23.292Z,97110.06
2018-11-26T02:03:58.752Z,97105.48
2018-11-26T02:06:33.849Z,97100.59
2018-11-26T02:09:10.287Z,97100.59
2018-11-26T02:13:02.338Z,97099.49
2018-11-26T02:15:44.563Z,97091.86
2018-11-26T02:18:20.430Z,97091.86
2018-11-26T02:20:55.292Z,97104.87
2018-11-26T02:23:30.309Z,97109.28
2018-11-26T02:26:05.285Z,97109.28
2018-11-26T02:29:28.721Z,97108.95
2018-11-26T02:32:03.595Z,97110.95
2018-11-26T02:34:39.402Z,97107.13
2018-11-26T02:37:12.282Z,97105.14
2018-11-26T02:39:47.419Z,97105.14
2018-11-26T02:42:22.292Z,97106.78
2018-11-26T02:45:01.792Z,97106.78
2018-11-26T02:47:36.704Z,97113.08
2018-11-26T02:50:11.525Z,97104.21
2018-11-26T02:52:46.295Z,97092.77
2018-11-26T02:55:19.154Z,97092.77
2018-11-26T02:57:53.896Z,97107.88
2018-11-26T03:00:28.936Z,97106.81
2018-11-26T03:03:03.903Z,97114.17
2018-11-26T03:05:38.924Z,97107.41
2018-11-26T03:08:14.279Z,97106.48
2018-11-26T03:10:49.292Z,97106.95
2018-11-26T03:13:23.281Z,97108.33
2018-11-26T03:15:57.951Z,97106.48
2018-11-26T03:18:33.521Z,97112.30
2018-11-26T03:21:08.437Z,97107.71
2018-11-26T03:23:44.323Z,97100.53
2018-11-26T03:26:18.964Z,97098.82
2018-11-26T03:28:54.294Z,97100.05
2018-11-26T03:31:29.291Z,97096.53
2018-11-26T03:34:03.079Z,97088.08
2018-11-26T03:36:38.086Z,97088.39
2018-11-26T03:39:13.948Z,97088.41
2018-11-26T03:41:48.713Z,97097.73
2018-11-26T03:44:27.713Z,97097.73
2018-11-26T03:47:02.757Z,97095.59
2018-11-26T03:49:39.284Z,97096.80
2018-11-26T03:52:12.027Z,97096.97
2018-11-26T03:54:46.965Z,97098.17
2018-11-26T03:57:21.925Z,97098.17
2018-11-26T03:59:54.869Z,97094.81
2018-11-26T04:02:29.571Z,97095.73
2018-11-26T04:05:04.421Z,97095.73
2018-11-26T04:07:39.005Z,97106.89
2018-11-26T04:10:22.950Z,97100.62
2018-11-26T04:12:57.921Z,97104.59
2018-11-26T04:15:32.613Z,97103.68
2018-11-26T04:18:07.290Z,97105.36
2018-11-26T04:20:42.071Z,97110.56
2018-11-26T04:23:17.290Z,97105.97
2018-11-26T04:25:52.296Z,97112.50
2018-11-26T04:28:26.285Z,97110.52
2018-11-26T04:31:01.303Z,97104.59
2018-11-26T04:33:35.298Z,97106.61
2018-11-26T04:36:10.296Z,97101.09
2018-11-26T04:38:43.325Z,97105.22
2018-11-26T04:41:18.278Z,97101.38
2018-11-26T04:43:51.614Z,97104.47
2018-11-26T04:46:26.286Z,97109.08
2018-11-26T04:48:59.715Z,97108.59
2018-11-26T04:51:34.736Z,97110.42
2018-11-26T04:54:10.330Z,97103.23
2018-11-26T04:56:43.303Z,97103.23
2018-11-26T04:59:18.465Z,97101.58
2018-11-26T05:01:53.306Z,97097.16
2018-11-26T05:04:28.753Z,97099.17
2018-11-26T05:07:03.434Z,97105.41
2018-11-26T05:09:38.387Z,97098.08
2018-11-26T05:12:11.288Z,97098.53
2018-11-26T05:14:46.385Z,97095.33
2018-11-26T05:17:20.016Z,97104.20
2018-11-26T05:19:54.510Z,97106.32
2018-11-26T05:22:29.301Z,97100.05
2018-11-26T05:25:04.010Z,97100.05
2018-11-26T05:27:38.884Z,97108.45
2018-11-26T05:30:17.297Z,97110.45
2018-11-26T05:32:50.285Z,97113.66
2018-11-26T05:35:24.982Z,97116.41
2018-11-26T05:37:59.806Z,97112.58
2018-11-26T05:40:32.409Z,97107.59
2018-11-26T05:43:08.305Z,97100.41
2018-11-26T05:45:42.867Z,97100.41
2018-11-26T05:48:17.478Z,97108.49
2018-11-26T05:50:52.296Z,97112.30
2018-11-26T05:53:25.361Z,97116.75
2018-11-26T05:55:59.923Z,97112.16
2018-11-26T05:58:38.422Z,97117.06
2018-11-26T06:01:13.288Z,97111.56
2018-11-26T06:03:48.356Z,97107.89
2018-11-26T06:06:21.309Z,97107.91
2018-11-26T06:08:57.374Z,97113.72
2018-11-26T06:11:32.453Z,97108.52
2018-11-26T06:14:07.364Z,97105.61
2018-11-26T06:16:41.130Z,97105.47
2018-11-26T06:19:14.132Z,97105.75
2018-11-26T06:21:48.966Z,97107.28
2018-11-26T06:24:24.162Z,97110.22
2018-11-26T06:26:59.349Z,97110.53
2018-11-26T06:29:32.288Z,97111.61
2018-11-26T06:32:05.289Z,97122.44
2018-11-26T06:34:42.468Z,97126.44
2018-11-26T06:37:16.986Z,97122.91
2018-11-26T06:39:54.791Z,97124.86
2018-11-26T06:42:30.297Z,97124.25
2018-11-26T06:45:05.460Z,97127.47
2018-11-26T06:47:40.287Z,97122.17
2018-11-26T06:50:17.392Z,97127.66
2018-11-26T06:52:52.375Z,97129.51
2018-11-26T06:55:29.338Z,97129.51
2018-11-26T06:58:04.299Z,97130.27
2018-11-26T07:00:39.332Z,97137.76
2018-11-26T07:03:12.290Z,97136.99
2018-11-26T07:05:47.291Z,97142.16
2018-11-26T07:08:20.284Z,97142.92
2018-11-26T07:10:55.304Z,97153.01
2018-11-26T07:13:28.413Z,97145.98
2018-11-26T07:16:03.338Z,97145.07
2018-11-26T07:18:36.290Z,97161.57
2018-11-26T07:21:11.425Z,97161.57
2018-11-26T07:23:46.397Z,97144.31
2018-11-26T07:26:19.329Z,97144.31
2018-11-26T07:28:54.368Z,97157.90
2018-11-26T07:31:27.500Z,97149.81
2018-11-26T07:34:02.327Z,97157.74
2018-11-26T07:36:37.304Z,97158.98
2018-11-26T07:39:12.298Z,97167.23
2018-11-26T07:41:47.298Z,97157.59
2018-11-26T07:44:22.290Z,97157.59
2018-11-26T07:46:55.293Z,97164.47
2018-11-26T07:49:30.352Z,97167.83
2018-11-26T07:52:05.447Z,97171.95
2018-11-26T07:54:38.314Z,97165.84
2018-11-26T07:57:13.303Z,97181.73
2018-11-26T07:59:48.133Z,97173.64
2018-11-26T08:02:23.290Z,97174.70
2018-11-26T08:04:58.146Z,97174.70
2018-11-26T08:07:33.341Z,97173.05
2018-11-26T08:10:18.395Z,97184.03
2018-11-26T08:12:55.115Z,97166.63
2018-11-26T08:15:33.294Z,97166.63
2018-11-26T08:18:06.310Z,97171.36
2018-11-26T08:20:41.221Z,97172.25
2018-11-26T08:23:16.300Z,97182.80
2018-11-26T08:25:51.293Z,97193.48
2018-11-26T08:28:24.340Z,97184.95
2018-11-26T08:30:59.293Z,97188.16
2018-11-26T08:33:32.414Z,97192.27
2018-11-26T08:36:17.301Z,97187.38
2018-11-26T08:39:11.342Z,97197.61
2018-11-26T08:41:54.299Z,97207.39
2018-11-26T08:44:47.669Z,97199.47
2018-11-26T08:47:44.911Z,97204.03
2018-11-26T08:50:19.485Z,97202.95
2018-11-26T08:52:54.411Z,97202.95
2018-11-26T08:55:29.380Z,97206.34
2018-11-26T08:58:04.386Z,97206.34
2018-11-26T09:00:39.294Z,97208.01
2018-11-26T09:03:25.385Z,97209.25
2018-11-26T09:06:07.333Z,97209.08
2018-11-26T09:08:41.290Z,97206.66
2018-11-26T09:11:17.383Z,97210.63
2018-11-26T09:13:52.341Z,97206.34
2018-11-26T09:16:26.950Z,97216.56
2018-11-26T09:19:02.147Z,97213.81
2018-11-26T09:21:37.345Z,97210.14
2018-11-26T09:24:10.147Z,97214.42
2018-11-26T09:26:45.395Z,97212.44
2018-11-26T09:29:20.379Z,97209.23
2018-11-26T09:31:55.314Z,97204.67
2018-11-26T09:34:30.338Z,97213.05
2018-11-26T09:37:03.288Z,97212.45
2018-11-26T09:39:38.182Z,97214.28
2018-11-26T09:42:11.320Z,97216.41
2018-11-26T09:44:44.296Z,97212.90
2018-11-26T09:47:17.413Z,97210.91
2018-11-26T09:49:50.291Z,97215.03
2018-11-26T09:52:25.304Z,97220.09
2018-11-26T09:55:01.794Z,97222.06
2018-11-26T09:57:37.290Z,97216.11
2018-11-26T10:00:25.288Z,97217.78
2018-11-26T10:02:58.285Z,97214.88
2018-11-26T10:05:33.335Z,97205.27
2018-11-26T10:08:08.807Z,97202.97
2018-11-26T10:10:45.178Z,97208.01
2018-11-26T10:13:20.290Z,97210.16
2018-11-26T10:15:55.132Z,97205.88
2018-11-26T10:18:30.298Z,97207.24
2018-11-26T10:21:05.238Z,97202.98
2018-11-26T10:23:38.307Z,97206.31
2018-11-26T10:26:13.296Z,97201.29
2018-11-26T10:28:46.306Z,97204.81
2018-11-26T10:31:20.969Z,97202.20
2018-11-26T10:33:55.968Z,97204.79
2018-11-26T10:36:31.130Z,97204.34
2018-11-26T10:39:04.621Z,97171.82
2018-11-26T10:41:37.404Z,97197.79
2018-11-26T10:44:12.362Z,97202.52
2018-11-26T10:46:47.386Z,97205.11
2018-11-26T10:49:22.383Z,97207.86
2018-11-26T10:51:55.287Z,97199.16
2018-11-26T10:54:28.292Z,97202.97
2018-11-26T10:57:01.290Z,97194.86
2018-11-26T10:59:34.307Z,97202.19
2018-11-26T11:02:26.295Z,97196.53
2018-11-26T11:04:59.298Z,97200.22
2018-11-26T11:07:33.953Z,97201.73
2018-11-26T11:10:14.397Z,97202.98
2018-11-26T11:12:47.296Z,97213.81
2018-11-26T11:15:24.514Z,97204.52
2018-11-26T11:17:59.301Z,97204.36
2018-11-26T11:20:34.297Z,97204.36
2018-11-26T11:23:07.288Z,97204.05
2018-11-26T11:27:33.367Z,97202.67
2018-11-26T11:30:37.898Z,97208.44
2018-11-26T11:35:46.305Z,97203.58
2018-11-26T11:38:21.294Z,97206.16
2018-11-26T11:40:56.286Z,97200.95
2018-11-26T11:43:29.279Z,97208.59
2018-11-26T11:46:04.468Z,97199.58
2018-11-26T11:48:39.299Z,97200.80
2018-11-26T11:51:14.065Z,97200.80
2018-11-26T11:53:49.287Z,97201.41
2018-11-26T11:56:26.279Z,97201.24
2018-11-26T11:58:59.304Z,97203.83
2018-11-26T12:01:34.284Z,97206.73
2018-11-26T12:04:07.640Z,97206.90
2018-11-26T12:06:42.429Z,97206.90
2018-11-26T12:09:17.338Z,97204.02
2018-11-26T12:11:52.288Z,97210.13
2018-11-26T12:14:27.300Z,97210.26
2018-11-26T12:17:01.799Z,97206.74
2018-11-26T12:19:36.417Z,97200.64
2018-11-26T12:22:11.300Z,97200.64
2018-11-26T12:24:45.952Z,97201.41
2018-11-26T12:27:20.953Z,97201.53
2018-11-26T12:29:55.748Z,97204.28
2018-11-26T12:32:31.293Z,97205.97
2018-11-26T12:35:06.284Z,97200.64
2018-11-26T12:37:41.287Z,97201.56
2018-11-26T12:40:26.455Z,97205.08
2018-11-26T12:43:03.390Z,97195.46
2018-11-26T12:48:05.619Z,97191.81
2018-11-26T12:50:40.765Z,97204.79
2018-11-26T12:53:15.786Z,97204.79
2018-11-26T12:55:48.610Z,97194.70
2018-11-26T12:58:23.489Z,97194.70
2018-11-26T13:01:01.242Z,97196.06
2018-11-26T13:03:37.400Z,97196.70
2018-11-26T13:07:02.392Z,97201.12
2018-11-26T13:09:37.359Z,97202.78
2018-11-26T13:12:10.292Z,97196.36
2018-11-26T13:14:43.318Z,97209.20
2018-11-26T13:17:18.367Z,97196.95
2018-11-26T13:19:53.348Z,97203.83
2018-11-26T13:22:28.342Z,97197.28
2018-11-26T13:25:03.305Z,97199.10
2018-11-26T13:27:36.279Z,97201.53
2018-11-26T13:30:14.685Z,97208.88
2018-11-26T13:32:54.750Z,97210.70
2018-11-26T13:35:31.587Z,97201.85
2018-11-26T13:38:06.756Z,97201.53
2018-11-26T13:40:41.381Z,97206.29
2018-11-26T13:43:20.731Z,97206.29
2018-11-26T13:45:54.174Z,97205.08
2018-11-26T13:48:29.293Z,97205.08
2018-11-26T13:51:03.955Z,97203.02
2018-11-26T13:56:21.471Z,97222.13
2018-11-26T13:58:56.495Z,97215.98
2018-11-26T14:01:29.369Z,97215.98
2018-11-26T14:04:04.328Z,97216.59
2018-11-26T14:06:39.287Z,97218.45
2018-11-26T14:09:13.302Z,97216.91
2018-11-26T14:11:48.277Z,97224.55
2018-11-26T14:14:21.284Z,97225.64
2018-11-26T14:16:56.018Z,97219.83
2018-11-26T14:19:31.310Z,97227.79
2018-11-26T14:22:06.290Z,97225.64
2018-11-26T14:24:39.332Z,97228.95
2018-11-26T14:27:12.283Z,97224.70
2018-11-26T14:29:45.284Z,97236.02
2018-11-26T14:32:20.393Z,97239.98
2018-11-26T14:34:53.287Z,97235.53
2018-11-26T14:37:28.383Z,97236.73
2018-11-26T14:40:03.311Z,97237.16
2018-11-26T14:42:38.454Z,97234.69
2018-11-26T14:45:16.275Z,97234.69
2018-11-26T14:47:51.284Z,97238.70
2018-11-26T14:50:26.285Z,97236.23
2018-11-26T14:53:05.290Z,97225.53
2018-11-26T14:55:46.647Z,97225.53
2018-11-26T14:58:21.432Z,97234.86
2018-11-26T15:00:56.285Z,97241.72
2018-11-26T15:03:29.104Z,97235.14
2018-11-26T15:06:04.277Z,97236.06
2018-11-26T15:08:37.075Z,97234.84
2018-11-26T15:11:12.303Z,97245.06
2018-11-26T15:13:45.326Z,97256.38
2018-11-26T15:16:18.475Z,97254.08
2018-11-26T15:18:53.486Z,97255.17
2018-11-26T15:21:28.118Z,97255.17
2018-11-26T15:24:01.303Z,97260.09
2018-11-26T15:26:36.277Z,97263.45
2018-11-26T15:29:09.306Z,97266.78
2018-11-26T15:31:44.278Z,97266.78
2018-11-26T15:34:17.291Z,97265.69
2018-11-26T15:36:52.324Z,97260.17
2018-11-26T15:39:27.357Z,97260.17
2018-11-26T15:42:02.282Z,97279.71
2018-11-26T15:44:35.140Z,97273.30
2018-11-26T15:47:10.286Z,97271.61
2018-11-26T15:49:44.308Z,97270.83
2018-11-26T15:52:19.280Z,97270.83
2018-11-26T15:54:54.295Z,97267.63
2018-11-26T15:57:29.281Z,97268.05
2018-11-26T16:00:02.280Z,97272.94
2018-11-26T16:02:37.283Z,97275.38
2018-11-26T16:05:13.411Z,97276.75
2018-11-26T16:07:46.891Z,97274.42
2018-11-26T16:10:21.749Z,97274.42
2018-11-26T16:12:58.731Z,97278.55
2018-11-26T16:15:43.900Z,97282.45
2018-11-26T16:18:29.278Z,97282.45
2018-11-26T16:21:04.278Z,97296.99
2018-11-26T16:23:38.952Z,97293.64
2018-11-26T16:26:13.344Z,97308.69
2018-11-26T16:28:48.948Z,97304.93
2018-11-26T16:31:23.893Z,97311.59
2018-11-26T16:33:58.776Z,97317.70
2018-11-26T16:36:33.374Z,97315.91
2018-11-26T16:39:10.282Z,97319.21
2018-11-26T16:41:45.278Z,97319.21
2018-11-26T16:44:20.473Z,97317.34
2018-11-26T16:46:55.279Z,97310.91
2018-11-26T16:49:28.292Z,97317.07
2018-11-26T16:52:03.281Z,97321.47
2018-11-26T16:54:38.356Z,97318.88
2018-11-26T16:57:13.279Z,97318.17
2018-11-26T16:59:47.288Z,97318.17
2018-11-26T17:02:20.119Z,97330.09
2018-11-26T17:04:55.339Z,97327.62
2018-11-26T17:07:28.232Z,97340.44
2018-11-26T17:10:03.346Z,97334.34
2018-11-26T17:12:39.288Z,97337.22
2018-11-26T17:15:17.357Z,97332.04
2018-11-26T17:17:52.991Z,97338.23
2018-11-26T17:20:26.301Z,97347.84
2018-11-26T17:22:59.356Z,97350.45
2018-11-26T17:25:34.368Z,97350.69
2018-11-26T17:28:09.298Z,97350.28
2018-11-26T17:30:44.614Z,97350.28
2018-11-26T17:33:19.280Z,97342.98
2018-11-26T17:35:54.286Z,97342.98
2018-11-26T17:38:27.120Z,97349.70
2018-11-26T17:41:02.353Z,97353.49
2018-11-26T17:43:38.291Z,97353.98
2018-11-26T17:46:13.293Z,97353.98
2018-11-26T17:48:45.877Z,97363.16
2018-11-26T17:51:20.408Z,97360.00
2018-11-26T17:53:55.332Z,97360.00
2018-11-26T17:56:30.290Z,97388.09
2018-11-26T17:59:03.058Z,97372.01
2018-11-26T18:01:48.282Z,97375.69
2018-11-26T18:04:21.296Z,97388.03
2018-11-26T18:06:55.959Z,97387.16
2018-11-26T18:09:31.962Z,97381.17
2018-11-26T18:12:07.304Z,97381.41
2018-11-26T18:14:43.348Z,97388.37
2018-11-26T18:17:18.128Z,97388.09
2018-11-26T18:19:53.389Z,97391.11
2018-11-26T18:22:26.292Z,97392.81
2018-11-26T18:24:59.354Z,97390.78
2018-11-26T18:27:34.286Z,97394.16
2018-11-26T18:30:19.971Z,97396.33
2018-11-26T18:32:55.286Z,97399.84
2018-11-26T18:35:32.334Z,97415.14
2018-11-26T18:38:07.285Z,97407.30
2018-11-26T18:40:44.300Z,97412.19
2018-11-26T18:43:19.292Z,97402.29
2018-11-26T18:45:54.290Z,97413.43
2018-11-26T18:48:27.295Z,97416.34
2018-11-26T18:51:02.293Z,97403.73
2018-11-26T18:53:35.142Z,97403.73
2018-11-26T18:56:10.426Z,97417.34
2018-11-26T18:58:45.317Z,97418.75
2018-11-26T19:01:20.290Z,97410.95
2018-11-26T19:03:53.287Z,97422.77
2018-11-26T19:06:27.954Z,97426.55
2018-11-26T19:09:02.957Z,97424.84
2018-11-26T19:11:37.301Z,97422.23
2018-11-26T19:14:18.830Z,97426.95
2018-11-26T19:16:55.286Z,97425.20
2018-11-26T19:19:29.303Z,97434.25
2018-11-26T19:22:02.491Z,97423.95
2018-11-26T19:24:38.019Z,97428.07
2018-11-26T19:27:13.280Z,97424.98
2018-11-26T19:29:46.374Z,97432.83
2018-11-26T19:32:23.020Z,97426.20
2018-11-26T19:35:03.422Z,97425.76
2018-11-26T19:37:36.871Z,97428.94
2018-11-26T19:40:20.653Z,97428.94
2018-11-26T19:42:55.298Z,97435.06
2018-11-26T19:45:32.521Z,97435.06
2018-11-26T19:48:07.305Z,97445.34
2018-11-26T19:50:46.284Z,97449.48
2018-11-26T19:53:19.291Z,97451.34
2018-11-26T19:55:53.905Z,97454.77
2018-11-26T19:58:28.563Z,97454.77
2018-11-26T20:01:03.293Z,97456.74
2018-11-26T20:03:38.381Z,97461.96
2018-11-26T20:06:18.351Z,97455.64
2018-11-26T20:09:02.289Z,97455.64
2018-11-26T20:11:37.289Z,97464.84
2018-11-26T20:14:10.604Z,97459.92
2018-11-26T20:16:47.140Z,97462.23
2018-11-26T20:19:22.376Z,97466.81
2018-11-26T20:21:57.316Z,97467.45
2018-11-26T20:27:21.897Z,97473.58
2018-11-26T20:29:57.008Z,97472.48
2018-11-26T20:32:31.696Z,97470.89
2018-11-26T20:35:07.294Z,97482.20
2018-11-26T20:37:42.418Z,97482.20
2018-11-26T20:40:22.364Z,97475.73
2018-11-26T20:43:01.481Z,97487.43
2018-11-26T20:45:46.956Z,97487.43
2018-11-26T20:48:22.292Z,97499.60
2018-11-26T20:50:58.591Z,97501.23
2018-11-26T20:53:34.489Z,97500.63
2018-11-26T20:56:19.343Z,97496.73
2018-11-26T20:58:52.291Z,97496.73
2018-11-26T21:01:27.964Z,97501.14
2018-11-26T21:04:03.970Z,97501.14
2018-11-26T21:06:39.499Z,97499.27
2018-11-26T21:09:15.992Z,97497.62
2018-11-26T21:11:51.550Z,97498.78
2018-11-26T21:14:27.641Z,97500.92
2018-11-26T21:17:02.987Z,97497.97
2018-11-26T21:19:39.324Z,97497.97
2018-11-26T21:22:14.496Z,97513.09
2018-11-26T21:24:50.312Z,97513.53
2018-11-26T21:27:23.891Z,97513.86
2018-11-26T21:29:59.614Z,97513.70
2018-11-26T21:32:34.953Z,97514.03
2018-11-26T21:35:12.402Z,97513.70
2018-11-26T21:37:52.357Z,97503.16
2018-11-26T21:40:34.111Z,97503.16
2018-11-26T21:43:09.748Z,97517.91
2018-11-26T21:45:56.749Z,97518.19
2018-11-26T21:48:31.751Z,97515.66
2018-11-26T21:51:08.281Z,97522.09
2018-11-26T21:53:41.724Z,97522.63
2018-11-26T21:56:17.600Z,97520.80
2018-11-26T21:58:53.381Z,97519.60
2018-11-26T22:01:28.977Z,97524.31
2018-11-26T22:04:04.624Z,97525.20
2018-11-26T22:06:40.562Z,97525.03
2018-11-26T22:09:16.563Z,97532.52
2018-11-26T22:11:52.327Z,97533.30
2018-11-26T22:14:28.294Z,97544.38
2018-11-26T22:17:03.517Z,97544.38
2018-11-26T22:19:38.979Z,97539.31
2018-11-26T22:22:14.117Z,97549.38
2018-11-26T22:24:48.337Z,97552.80
2018-11-26T22:27:23.377Z,97556.42
2018-11-26T22:29:57.317Z,97562.44
2018-11-26T22:34:37.183Z,97562.02
2018-11-26T22:37:12.393Z,97565.49
2018-11-26T22:39:48.284Z,97565.49
2018-11-26T22:42:23.390Z,97570.07
2018-11-26T22:44:59.278Z,97576.38
2018-11-26T22:47:34.425Z,97579.66
2018-11-26T22:50:12.306Z,97574.66
2018-11-26T22:52:47.386Z,97574.66
2018-11-26T22:55:23.290Z,97589.59
2018-11-26T22:57:56.302Z,97591.08
2018-11-26T23:00:43.374Z,97589.25
2018-11-26T23:03:20.346Z,97596.39
2018-11-26T23:05:55.351Z,97591.22
2018-11-26T23:08:30.287Z,97597.48
2018-11-26T23:11:05.391Z,97602.47
2018-11-26T23:13:38.451Z,97601.47
2018-11-26T23:16:11.678Z,97604.38
2018-11-26T23:18:46.404Z,97606.00
2018-11-26T23:21:21.364Z,97601.89
2018-11-26T23:23:54.374Z,97601.89
2018-11-26T23:26:29.377Z,97604.73
2018-11-26T23:29:02.281Z,97604.73
2018-11-26T23:31:37.288Z,97604.45
2018-11-26T23:34:10.294Z,97610.99
2018-11-26T23:36:45.305Z,97606.28
2018-11-26T23:39:18.302Z,97607.48
2018-11-26T23:41:53.288Z,97612.08
2018-11-26T23:44:26.286Z,97611.53
2018-11-26T23:47:01.280Z,97609.98
2018-11-26T23:49:34.288Z,97604.76
2018-11-26T23:52:09.433Z,97608.70
2018-11-26T23:54:42.539Z,97613.09
2018-11-26T23:57:17.570Z,97615.89
2018-11-26T23:59:52.517Z,97618.62
